sensor_id;sensor_type;location;lat;lon;timestamp;temperature;humidity
35277;DHT22;21401;50.878;8.050;2022-08-01T00:01:38;18.90;99.90
35277;DHT22;21401;50.878;8.050;2022-08-01T00:04:04;18.90;99.90
35277;DHT22;21401;50.878;8.050;2022-08-01T00:06:30;18.90;99.90
35277;DHT22;21401;50.878;8.050;2022-08-01T00:08:56;18.90;99.90
35277;DHT22;21401;50.878;8.050;2022-08-01T00:11:24;18.90;99.90
35277;DHT22;21401;50.878;8.050;2022-08-01T00:13:50;19.00;99.90
35277;DHT22;21401;50.878;8.050;2022-08-01T00:16:18;19.00;99.90
35277;DHT22;21401;50.878;8.050;2022-08-01T00:18:43;19.00;99.90
35277;DHT22;21401;50.878;8.050;2022-08-01T00:21:09;18.90;99.90
35277;DHT22;21401;50.878;8.050;2022-08-01T00:23:35;18.90;99.90
35277;DHT22;21401;50.878;8.050;2022-08-01T00:26:02;18.90;99.90
35277;DHT22;21401;50.878;8.050;2022-08-01T00:28:28;18.90;99.90
35277;DHT22;21401;50.878;8.050;2022-08-01T00:30:58;18.90;99.90
35277;DHT22;21401;50.878;8.050;2022-08-01T00:33:26;18.90;99.90
35277;DHT22;21401;50.878;8.050;2022-08-01T00:35:52;19.00;99.90
35277;DHT22;21401;50.878;8.050;2022-08-01T00:38:17;19.00;99.90
35277;DHT22;21401;50.878;8.050;2022-08-01T00:40:45;19.00;99.90
35277;DHT22;21401;50.878;8.050;2022-08-01T00:43:14;19.00;99.90
35277;DHT22;21401;50.878;8.050;2022-08-01T00:45:43;18.90;99.90
35277;DHT22;21401;50.878;8.050;2022-08-01T00:48:08;18.90;99.90
35277;DHT22;21401;50.878;8.050;2022-08-01T00:50:34;19.00;99.90
35277;DHT22;21401;50.878;8.050;2022-08-01T00:53:01;18.90;99.90
35277;DHT22;21401;50.878;8.050;2022-08-01T00:55:27;19.00;99.90
35277;DHT22;21401;50.878;8.050;2022-08-01T00:57:54;19.00;99.90
35277;DHT22;21401;50.878;8.050;2022-08-01T01:00:20;19.00;99.90
35277;DHT22;21401;50.878;8.050;2022-08-01T01:02:46;18.90;99.90
35277;DHT22;21401;50.878;8.050;2022-08-01T01:05:14;18.90;99.90
35277;DHT22;21401;50.878;8.050;2022-08-01T01:07:56;18.90;99.90
35277;DHT22;21401;50.878;8.050;2022-08-01T01:10:42;19.00;99.90
35277;DHT22;21401;50.878;8.050;2022-08-01T01:15:47;18.80;99.90
35277;DHT22;21401;50.878;8.050;2022-08-01T01:18:29;18.80;99.90
35277;DHT22;21401;50.878;8.050;2022-08-01T01:26:47;18.90;99.90
35277;DHT22;21401;50.878;8.050;2022-08-01T01:29:18;18.80;99.90
35277;DHT22;21401;50.878;8.050;2022-08-01T01:31:49;18.80;99.90
35277;DHT22;21401;50.878;8.050;2022-08-01T01:34:21;18.80;99.90
35277;DHT22;21401;50.878;8.050;2022-08-01T01:36:48;18.80;99.90
35277;DHT22;21401;50.878;8.050;2022-08-01T01:39:17;18.80;99.90
35277;DHT22;21401;50.878;8.050;2022-08-01T01:41:44;18.80;99.90
35277;DHT22;21401;50.878;8.050;2022-08-01T01:44:10;18.80;99.90
35277;DHT22;21401;50.878;8.050;2022-08-01T01:46:37;18.70;99.90
35277;DHT22;21401;50.878;8.050;2022-08-01T01:49:04;18.70;99.90
35277;DHT22;21401;50.878;8.050;2022-08-01T01:51:31;18.70;99.90
35277;DHT22;21401;50.878;8.050;2022-08-01T01:53:58;18.70;99.90
35277;DHT22;21401;50.878;8.050;2022-08-01T01:56:26;18.70;99.90
35277;DHT22;21401;50.878;8.050;2022-08-01T01:58:59;18.70;99.90
35277;DHT22;21401;50.878;8.050;2022-08-01T02:01:27;18.70;99.90
35277;DHT22;21401;50.878;8.050;2022-08-01T02:03:55;18.60;99.90
35277;DHT22;21401;50.878;8.050;2022-08-01T02:06:23;18.70;99.90
35277;DHT22;21401;50.878;8.050;2022-08-01T02:08:52;18.60;99.90
35277;DHT22;21401;50.878;8.050;2022-08-01T02:11:20;18.60;99.90
35277;DHT22;21401;50.878;8.050;2022-08-01T02:13:59;18.60;99.90
35277;DHT22;21401;50.878;8.050;2022-08-01T02:16:33;18.60;99.90
35277;DHT22;21401;50.878;8.050;2022-08-01T02:19:00;18.60;99.90
35277;DHT22;21401;50.878;8.050;2022-08-01T02:21:37;18.60;99.90
35277;DHT22;21401;50.878;8.050;2022-08-01T02:24:19;18.60;99.90
35277;DHT22;21401;50.878;8.050;2022-08-01T02:26:51;18.60;99.90
35277;DHT22;21401;50.878;8.050;2022-08-01T02:29:22;18.50;99.90
35277;DHT22;21401;50.878;8.050;2022-08-01T02:31:51;18.50;99.90
35277;DHT22;21401;50.878;8.050;2022-08-01T02:34:21;18.60;99.90
35277;DHT22;21401;50.878;8.050;2022-08-01T02:36:48;18.60;99.90
35277;DHT22;21401;50.878;8.050;2022-08-01T02:39:16;18.60;99.90
35277;DHT22;21401;50.878;8.050;2022-08-01T02:41:47;18.60;99.90
35277;DHT22;21401;50.878;8.050;2022-08-01T02:44:21;18.60;99.90
35277;DHT22;21401;50.878;8.050;2022-08-01T02:46:58;18.50;99.90
35277;DHT22;21401;50.878;8.050;2022-08-01T02:49:31;18.50;99.90
35277;DHT22;21401;50.878;8.050;2022-08-01T02:51:59;18.60;99.90
35277;DHT22;21401;50.878;8.050;2022-08-01T02:54:26;18.50;99.90
35277;DHT22;21401;50.878;8.050;2022-08-01T02:57:00;18.50;99.90
35277;DHT22;21401;50.878;8.050;2022-08-01T02:59:28;18.40;99.90
35277;DHT22;21401;50.878;8.050;2022-08-01T03:01:57;18.50;99.90
35277;DHT22;21401;50.878;8.050;2022-08-01T03:04:27;18.40;99.90
35277;DHT22;21401;50.878;8.050;2022-08-01T03:06:55;18.40;99.90
35277;DHT22;21401;50.878;8.050;2022-08-01T03:09:25;18.40;99.90
35277;DHT22;21401;50.878;8.050;2022-08-01T03:11:55;18.40;99.90
35277;DHT22;21401;50.878;8.050;2022-08-01T03:14:25;18.40;99.90
35277;DHT22;21401;50.878;8.050;2022-08-01T03:16:52;18.40;99.90
35277;DHT22;21401;50.878;8.050;2022-08-01T03:19:22;18.40;99.90
35277;DHT22;21401;50.878;8.050;2022-08-01T03:21:50;18.30;99.90
35277;DHT22;21401;50.878;8.050;2022-08-01T03:24:16;18.30;99.90
35277;DHT22;21401;50.878;8.050;2022-08-01T03:26:43;18.40;99.90
35277;DHT22;21401;50.878;8.050;2022-08-01T03:29:16;18.40;99.90
35277;DHT22;21401;50.878;8.050;2022-08-01T03:31:44;18.30;99.90
35277;DHT22;21401;50.878;8.050;2022-08-01T03:34:11;18.40;99.90
35277;DHT22;21401;50.878;8.050;2022-08-01T03:36:48;18.40;99.90
35277;DHT22;21401;50.878;8.050;2022-08-01T03:39:18;18.40;99.90
35277;DHT22;21401;50.878;8.050;2022-08-01T03:41:53;18.30;99.90
35277;DHT22;21401;50.878;8.050;2022-08-01T03:44:24;18.40;99.90
35277;DHT22;21401;50.878;8.050;2022-08-01T03:46:58;18.40;99.90
35277;DHT22;21401;50.878;8.050;2022-08-01T03:49:30;18.40;99.90
35277;DHT22;21401;50.878;8.050;2022-08-01T03:51:59;18.50;99.90
35277;DHT22;21401;50.878;8.050;2022-08-01T03:54:30;18.40;99.90
35277;DHT22;21401;50.878;8.050;2022-08-01T03:56:57;18.40;99.90
35277;DHT22;21401;50.878;8.050;2022-08-01T03:59:28;18.50;99.90
35277;DHT22;21401;50.878;8.050;2022-08-01T04:01:57;18.40;99.90
35277;DHT22;21401;50.878;8.050;2022-08-01T04:04:23;18.40;99.90
35277;DHT22;21401;50.878;8.050;2022-08-01T04:06:49;18.40;99.90
35277;DHT22;21401;50.878;8.050;2022-08-01T04:09:19;18.30;99.90
35277;DHT22;21401;50.878;8.050;2022-08-01T04:11:45;18.30;99.90
35277;DHT22;21401;50.878;8.050;2022-08-01T04:14:11;18.30;99.90
35277;DHT22;21401;50.878;8.050;2022-08-01T04:16:37;18.30;99.90
35277;DHT22;21401;50.878;8.050;2022-08-01T04:19:02;18.30;99.90
35277;DHT22;21401;50.878;8.050;2022-08-01T04:21:32;18.30;99.90
35277;DHT22;21401;50.878;8.050;2022-08-01T04:24:17;18.20;99.90
35277;DHT22;21401;50.878;8.050;2022-08-01T04:26:44;18.20;99.90
35277;DHT22;21401;50.878;8.050;2022-08-01T04:29:11;18.20;99.90
35277;DHT22;21401;50.878;8.050;2022-08-01T04:31:39;18.20;99.90
35277;DHT22;21401;50.878;8.050;2022-08-01T04:34:07;18.20;99.90
35277;DHT22;21401;50.878;8.050;2022-08-01T04:36:35;18.20;99.90
35277;DHT22;21401;50.878;8.050;2022-08-01T04:39:04;18.20;99.90
35277;DHT22;21401;50.878;8.050;2022-08-01T04:41:33;18.30;99.90
35277;DHT22;21401;50.878;8.050;2022-08-01T04:44:01;18.20;99.90
35277;DHT22;21401;50.878;8.050;2022-08-01T04:46:30;18.30;99.90
35277;DHT22;21401;50.878;8.050;2022-08-01T04:49:03;18.30;99.90
35277;DHT22;21401;50.878;8.050;2022-08-01T04:51:32;18.30;99.90
35277;DHT22;21401;50.878;8.050;2022-08-01T04:54:01;18.30;99.90
35277;DHT22;21401;50.878;8.050;2022-08-01T04:56:27;18.40;99.90
35277;DHT22;21401;50.878;8.050;2022-08-01T04:58:52;18.30;99.90
35277;DHT22;21401;50.878;8.050;2022-08-01T05:01:37;18.40;99.90
35277;DHT22;21401;50.878;8.050;2022-08-01T05:04:02;18.30;99.90
35277;DHT22;21401;50.878;8.050;2022-08-01T05:06:28;18.30;99.90
35277;DHT22;21401;50.878;8.050;2022-08-01T05:08:53;18.30;99.90
35277;DHT22;21401;50.878;8.050;2022-08-01T05:11:21;18.30;99.90
35277;DHT22;21401;50.878;8.050;2022-08-01T05:13:48;18.30;99.90
35277;DHT22;21401;50.878;8.050;2022-08-01T05:16:16;18.30;99.90
35277;DHT22;21401;50.878;8.050;2022-08-01T05:18:42;18.40;99.90
35277;DHT22;21401;50.878;8.050;2022-08-01T05:21:07;18.40;99.90
35277;DHT22;21401;50.878;8.050;2022-08-01T05:23:33;18.50;99.90
35277;DHT22;21401;50.878;8.050;2022-08-01T05:25:58;18.60;99.90
35277;DHT22;21401;50.878;8.050;2022-08-01T05:28:24;18.60;99.90
35277;DHT22;21401;50.878;8.050;2022-08-01T05:30:50;18.60;99.90
35277;DHT22;21401;50.878;8.050;2022-08-01T05:33:15;18.60;99.90
35277;DHT22;21401;50.878;8.050;2022-08-01T05:35:45;18.70;99.90
35277;DHT22;21401;50.878;8.050;2022-08-01T05:38:11;18.70;99.90
35277;DHT22;21401;50.878;8.050;2022-08-01T05:40:36;18.80;99.90
35277;DHT22;21401;50.878;8.050;2022-08-01T05:43:04;18.80;99.90
35277;DHT22;21401;50.878;8.050;2022-08-01T05:45:32;18.80;99.90
35277;DHT22;21401;50.878;8.050;2022-08-01T05:47:57;18.80;99.90
35277;DHT22;21401;50.878;8.050;2022-08-01T05:50:23;18.80;99.90
35277;DHT22;21401;50.878;8.050;2022-08-01T05:52:48;18.80;99.90
35277;DHT22;21401;50.878;8.050;2022-08-01T05:55:14;18.90;99.90
35277;DHT22;21401;50.878;8.050;2022-08-01T05:57:40;18.90;99.90
35277;DHT22;21401;50.878;8.050;2022-08-01T06:00:11;18.90;99.90
35277;DHT22;21401;50.878;8.050;2022-08-01T06:02:41;18.90;99.90
35277;DHT22;21401;50.878;8.050;2022-08-01T06:05:08;18.90;99.90
35277;DHT22;21401;50.878;8.050;2022-08-01T06:07:34;18.90;99.90
35277;DHT22;21401;50.878;8.050;2022-08-01T06:10:00;18.90;99.90
35277;DHT22;21401;50.878;8.050;2022-08-01T06:12:25;18.90;99.90
35277;DHT22;21401;50.878;8.050;2022-08-01T06:14:53;18.90;99.90
35277;DHT22;21401;50.878;8.050;2022-08-01T06:17:19;18.80;99.90
35277;DHT22;21401;50.878;8.050;2022-08-01T06:19:49;18.80;99.90
35277;DHT22;21401;50.878;8.050;2022-08-01T06:22:14;18.90;99.90
35277;DHT22;21401;50.878;8.050;2022-08-01T06:24:40;18.90;99.90
35277;DHT22;21401;50.878;8.050;2022-08-01T06:27:06;18.90;99.90
35277;DHT22;21401;50.878;8.050;2022-08-01T06:29:32;18.90;99.90
35277;DHT22;21401;50.878;8.050;2022-08-01T06:32:00;19.00;99.90
35277;DHT22;21401;50.878;8.050;2022-08-01T06:34:26;19.10;99.90
35277;DHT22;21401;50.878;8.050;2022-08-01T06:36:51;19.30;99.90
35277;DHT22;21401;50.878;8.050;2022-08-01T06:39:17;19.30;99.90
35277;DHT22;21401;50.878;8.050;2022-08-01T06:41:43;19.40;99.90
35277;DHT22;21401;50.878;8.050;2022-08-01T06:44:11;19.50;99.90
35277;DHT22;21401;50.878;8.050;2022-08-01T06:46:37;19.40;99.90
35277;DHT22;21401;50.878;8.050;2022-08-01T06:49:05;19.30;99.90
35277;DHT22;21401;50.878;8.050;2022-08-01T06:51:31;19.30;99.90
35277;DHT22;21401;50.878;8.050;2022-08-01T06:54:01;19.30;99.90
35277;DHT22;21401;50.878;8.050;2022-08-01T06:56:27;19.40;99.90
35277;DHT22;21401;50.878;8.050;2022-08-01T06:58:52;19.60;99.90
35277;DHT22;21401;50.878;8.050;2022-08-01T07:01:18;19.90;99.90
35277;DHT22;21401;50.878;8.050;2022-08-01T07:03:43;19.90;99.90
35277;DHT22;21401;50.878;8.050;2022-08-01T07:06:12;20.00;99.90
35277;DHT22;21401;50.878;8.050;2022-08-01T07:08:42;20.00;99.90
35277;DHT22;21401;50.878;8.050;2022-08-01T07:11:08;19.90;99.90
35277;DHT22;21401;50.878;8.050;2022-08-01T07:13:33;19.90;99.90
35277;DHT22;21401;50.878;8.050;2022-08-01T07:16:01;19.70;99.90
35277;DHT22;21401;50.878;8.050;2022-08-01T07:18:27;19.70;99.90
35277;DHT22;21401;50.878;8.050;2022-08-01T07:20:54;19.70;99.90
35277;DHT22;21401;50.878;8.050;2022-08-01T07:23:22;19.80;99.90
35277;DHT22;21401;50.878;8.050;2022-08-01T07:25:48;19.90;99.90
35277;DHT22;21401;50.878;8.050;2022-08-01T07:28:16;19.90;99.90
35277;DHT22;21401;50.878;8.050;2022-08-01T07:30:41;19.90;99.90
35277;DHT22;21401;50.878;8.050;2022-08-01T07:33:09;19.80;99.90
35277;DHT22;21401;50.878;8.050;2022-08-01T07:35:35;19.90;99.90
35277;DHT22;21401;50.878;8.050;2022-08-01T07:38:04;19.90;99.90
35277;DHT22;21401;50.878;8.050;2022-08-01T07:40:33;19.90;99.90
35277;DHT22;21401;50.878;8.050;2022-08-01T07:42:58;20.10;99.90
35277;DHT22;21401;50.878;8.050;2022-08-01T07:45:24;20.00;99.90
35277;DHT22;21401;50.878;8.050;2022-08-01T07:47:49;20.20;99.90
35277;DHT22;21401;50.878;8.050;2022-08-01T07:50:18;20.60;99.90
35277;DHT22;21401;50.878;8.050;2022-08-01T07:52:44;20.60;99.90
35277;DHT22;21401;50.878;8.050;2022-08-01T07:55:12;20.90;99.90
35277;DHT22;21401;50.878;8.050;2022-08-01T07:57:38;21.00;99.90
35277;DHT22;21401;50.878;8.050;2022-08-01T08:00:07;21.00;99.90
35277;DHT22;21401;50.878;8.050;2022-08-01T08:02:34;21.30;99.90
35277;DHT22;21401;50.878;8.050;2022-08-01T08:05:00;21.50;99.90
35277;DHT22;21401;50.878;8.050;2022-08-01T08:07:25;21.40;99.90
35277;DHT22;21401;50.878;8.050;2022-08-01T08:09:51;21.40;99.90
35277;DHT22;21401;50.878;8.050;2022-08-01T08:12:17;21.30;99.90
35277;DHT22;21401;50.878;8.050;2022-08-01T08:14:42;20.90;99.90
35277;DHT22;21401;50.878;8.050;2022-08-01T08:17:08;21.10;99.90
35277;DHT22;21401;50.878;8.050;2022-08-01T08:19:36;21.30;99.90
35277;DHT22;21401;50.878;8.050;2022-08-01T08:22:04;21.80;99.90
35277;DHT22;21401;50.878;8.050;2022-08-01T08:24:29;21.60;99.90
35277;DHT22;21401;50.878;8.050;2022-08-01T08:26:58;22.30;99.90
35277;DHT22;21401;50.878;8.050;2022-08-01T08:29:26;22.60;99.90
35277;DHT22;21401;50.878;8.050;2022-08-01T08:31:53;22.70;99.90
35277;DHT22;21401;50.878;8.050;2022-08-01T08:34:24;22.60;99.90
35277;DHT22;21401;50.878;8.050;2022-08-01T08:36:50;22.40;99.90
35277;DHT22;21401;50.878;8.050;2022-08-01T08:39:16;22.20;99.90
35277;DHT22;21401;50.878;8.050;2022-08-01T08:41:44;22.20;99.90
35277;DHT22;21401;50.878;8.050;2022-08-01T08:44:12;22.10;99.90
35277;DHT22;21401;50.878;8.050;2022-08-01T08:46:43;21.90;99.90
35277;DHT22;21401;50.878;8.050;2022-08-01T08:49:20;21.80;99.90
35277;DHT22;21401;50.878;8.050;2022-08-01T08:52:50;21.70;99.90
35277;DHT22;21401;50.878;8.050;2022-08-01T08:55:18;22.00;99.90
35277;DHT22;21401;50.878;8.050;2022-08-01T08:58:15;22.30;99.90
35277;DHT22;21401;50.878;8.050;2022-08-01T09:01:05;22.10;99.90
35277;DHT22;21401;50.878;8.050;2022-08-01T09:03:33;22.60;99.90
35277;DHT22;21401;50.878;8.050;2022-08-01T09:05:59;22.40;99.90
35277;DHT22;21401;50.878;8.050;2022-08-01T09:08:24;22.90;99.90
35277;DHT22;21401;50.878;8.050;2022-08-01T09:10:52;22.90;99.90
35277;DHT22;21401;50.878;8.050;2022-08-01T09:13:20;22.80;99.90
35277;DHT22;21401;50.878;8.050;2022-08-01T09:21:21;23.30;99.90
35277;DHT22;21401;50.878;8.050;2022-08-01T09:23:51;23.50;99.90
35277;DHT22;21401;50.878;8.050;2022-08-01T09:26:21;23.50;99.90
35277;DHT22;21401;50.878;8.050;2022-08-01T09:28:47;23.20;99.90
35277;DHT22;21401;50.878;8.050;2022-08-01T09:31:17;23.20;99.90
35277;DHT22;21401;50.878;8.050;2022-08-01T09:33:54;23.10;99.90
35277;DHT22;21401;50.878;8.050;2022-08-01T09:36:23;23.20;99.90
35277;DHT22;21401;50.878;8.050;2022-08-01T09:38:50;23.70;99.90
35277;DHT22;21401;50.878;8.050;2022-08-01T09:41:28;24.00;99.90
35277;DHT22;21401;50.878;8.050;2022-08-01T09:43:55;24.20;99.90
35277;DHT22;21401;50.878;8.050;2022-08-01T09:46:21;24.40;99.90
35277;DHT22;21401;50.878;8.050;2022-08-01T09:49:04;24.70;99.90
35277;DHT22;21401;50.878;8.050;2022-08-01T09:51:35;24.40;99.90
35277;DHT22;21401;50.878;8.050;2022-08-01T09:54:08;24.60;99.90
35277;DHT22;21401;50.878;8.050;2022-08-01T09:56:41;24.60;99.90
35277;DHT22;21401;50.878;8.050;2022-08-01T09:59:11;24.40;99.90
35277;DHT22;21401;50.878;8.050;2022-08-01T10:01:51;24.50;99.90
35277;DHT22;21401;50.878;8.050;2022-08-01T10:04:20;24.40;99.90
35277;DHT22;21401;50.878;8.050;2022-08-01T10:06:47;25.10;99.90
35277;DHT22;21401;50.878;8.050;2022-08-01T10:09:27;24.70;99.90
35277;DHT22;21401;50.878;8.050;2022-08-01T10:11:57;24.70;99.90
35277;DHT22;21401;50.878;8.050;2022-08-01T10:14:25;24.80;99.90
35277;DHT22;21401;50.878;8.050;2022-08-01T10:16:52;24.30;99.90
35277;DHT22;21401;50.878;8.050;2022-08-01T10:19:22;24.00;99.90
35277;DHT22;21401;50.878;8.050;2022-08-01T10:21:50;24.10;99.90
35277;DHT22;21401;50.878;8.050;2022-08-01T10:24:20;23.80;99.90
35277;DHT22;21401;50.878;8.050;2022-08-01T10:26:48;23.80;99.90
35277;DHT22;21401;50.878;8.050;2022-08-01T10:29:17;24.20;99.90
35277;DHT22;21401;50.878;8.050;2022-08-01T10:31:45;24.30;99.90
35277;DHT22;21401;50.878;8.050;2022-08-01T10:34:13;24.20;99.90
35277;DHT22;21401;50.878;8.050;2022-08-01T10:36:42;24.50;99.90
35277;DHT22;21401;50.878;8.050;2022-08-01T10:39:10;24.90;99.90
35277;DHT22;21401;50.878;8.050;2022-08-01T10:41:39;24.90;99.90
35277;DHT22;21401;50.878;8.050;2022-08-01T10:44:08;24.80;99.90
35277;DHT22;21401;50.878;8.050;2022-08-01T10:46:38;24.90;99.90
35277;DHT22;21401;50.878;8.050;2022-08-01T10:49:15;25.20;99.90
35277;DHT22;21401;50.878;8.050;2022-08-01T10:51:42;24.80;99.90
35277;DHT22;21401;50.878;8.050;2022-08-01T10:54:12;24.60;99.90
35277;DHT22;21401;50.878;8.050;2022-08-01T10:59:24;25.10;99.90
35277;DHT22;21401;50.878;8.050;2022-08-01T11:02:01;24.80;99.90
35277;DHT22;21401;50.878;8.050;2022-08-01T11:07:21;24.60;99.90
35277;DHT22;21401;50.878;8.050;2022-08-01T11:12:48;25.00;99.90
35277;DHT22;21401;50.878;8.050;2022-08-01T11:17:43;25.20;99.90
35277;DHT22;21401;50.878;8.050;2022-08-01T11:20:27;25.20;99.90
35277;DHT22;21401;50.878;8.050;2022-08-01T11:33:14;25.80;99.20
35277;DHT22;21401;50.878;8.050;2022-08-01T11:41:15;25.80;97.40
35277;DHT22;21401;50.878;8.050;2022-08-01T11:54:28;25.80;99.50
35277;DHT22;21401;50.878;8.050;2022-08-01T11:57:01;25.60;98.40
35277;DHT22;21401;50.878;8.050;2022-08-01T11:59:27;26.00;98.40
35277;DHT22;21401;50.878;8.050;2022-08-01T12:01:53;25.60;97.70
35277;DHT22;21401;50.878;8.050;2022-08-01T12:04:19;25.90;98.00
35277;DHT22;21401;50.878;8.050;2022-08-01T12:06:47;26.00;96.60
35277;DHT22;21401;50.878;8.050;2022-08-01T12:09:21;25.70;97.20
35277;DHT22;21401;50.878;8.050;2022-08-01T12:11:47;25.50;98.00
35277;DHT22;21401;50.878;8.050;2022-08-01T12:14:18;25.20;98.00
35277;DHT22;21401;50.878;8.050;2022-08-01T12:16:49;25.20;97.80
35277;DHT22;21401;50.878;8.050;2022-08-01T12:19:20;25.60;97.90
35277;DHT22;21401;50.878;8.050;2022-08-01T12:22:05;25.40;97.20
35277;DHT22;21401;50.878;8.050;2022-08-01T12:24:30;24.90;97.50
35277;DHT22;21401;50.878;8.050;2022-08-01T12:26:56;25.00;98.50
35277;DHT22;21401;50.878;8.050;2022-08-01T12:29:41;25.50;97.30
35277;DHT22;21401;50.878;8.050;2022-08-01T12:32:31;26.10;97.30
35277;DHT22;21401;50.878;8.050;2022-08-01T12:37:27;26.40;95.40
35277;DHT22;21401;50.878;8.050;2022-08-01T12:39:56;26.30;95.80
35277;DHT22;21401;50.878;8.050;2022-08-01T12:42:25;26.00;95.50
35277;DHT22;21401;50.878;8.050;2022-08-01T12:44:52;25.50;96.50
35277;DHT22;21401;50.878;8.050;2022-08-01T12:47:18;25.90;96.70
35277;DHT22;21401;50.878;8.050;2022-08-01T12:49:46;26.30;96.40
35277;DHT22;21401;50.878;8.050;2022-08-01T12:52:13;26.20;95.60
35277;DHT22;21401;50.878;8.050;2022-08-01T12:57:35;25.40;97.60
35277;DHT22;21401;50.878;8.050;2022-08-01T13:00:14;25.50;97.10
35277;DHT22;21401;50.878;8.050;2022-08-01T13:02:41;25.40;97.70
35277;DHT22;21401;50.878;8.050;2022-08-01T13:05:08;25.60;97.20
35277;DHT22;21401;50.878;8.050;2022-08-01T13:07:43;24.50;97.40
35277;DHT22;21401;50.878;8.050;2022-08-01T13:10:13;24.60;98.00
35277;DHT22;21401;50.878;8.050;2022-08-01T13:12:50;24.60;97.70
35277;DHT22;21401;50.878;8.050;2022-08-01T13:15:27;24.70;97.50
35277;DHT22;21401;50.878;8.050;2022-08-01T13:17:54;24.80;97.70
35277;DHT22;21401;50.878;8.050;2022-08-01T13:20:33;24.90;97.20
35277;DHT22;21401;50.878;8.050;2022-08-01T13:23:16;24.80;97.80
35277;DHT22;21401;50.878;8.050;2022-08-01T13:25:48;25.00;97.50
35277;DHT22;21401;50.878;8.050;2022-08-01T13:28:22;25.30;97.30
35277;DHT22;21401;50.878;8.050;2022-08-01T13:30:56;25.60;96.90
35277;DHT22;21401;50.878;8.050;2022-08-01T13:33:24;25.80;96.60
35277;DHT22;21401;50.878;8.050;2022-08-01T13:35:56;25.60;97.20
35277;DHT22;21401;50.878;8.050;2022-08-01T13:38:22;25.20;97.40
35277;DHT22;21401;50.878;8.050;2022-08-01T13:41:08;25.20;97.80
35277;DHT22;21401;50.878;8.050;2022-08-01T13:43:33;25.30;98.30
35277;DHT22;21401;50.878;8.050;2022-08-01T13:46:00;25.20;97.90
35277;DHT22;21401;50.878;8.050;2022-08-01T13:48:29;25.20;97.70
35277;DHT22;21401;50.878;8.050;2022-08-01T13:50:55;24.80;97.60
35277;DHT22;21401;50.878;8.050;2022-08-01T13:53:21;24.70;98.30
35277;DHT22;21401;50.878;8.050;2022-08-01T13:55:46;24.70;98.20
35277;DHT22;21401;50.878;8.050;2022-08-01T13:58:12;24.60;98.40
35277;DHT22;21401;50.878;8.050;2022-08-01T14:00:37;24.80;97.40
35277;DHT22;21401;50.878;8.050;2022-08-01T14:03:03;25.00;97.20
35277;DHT22;21401;50.878;8.050;2022-08-01T14:05:33;25.20;97.40
35277;DHT22;21401;50.878;8.050;2022-08-01T14:07:59;25.10;97.80
35277;DHT22;21401;50.878;8.050;2022-08-01T14:10:24;25.00;97.90
35277;DHT22;21401;50.878;8.050;2022-08-01T14:12:52;24.90;98.30
35277;DHT22;21401;50.878;8.050;2022-08-01T14:15:20;24.80;98.40
35277;DHT22;21401;50.878;8.050;2022-08-01T14:17:46;24.50;98.80
35277;DHT22;21401;50.878;8.050;2022-08-01T14:20:16;24.70;98.70
35277;DHT22;21401;50.878;8.050;2022-08-01T14:22:48;24.50;98.30
35277;DHT22;21401;50.878;8.050;2022-08-01T14:25:16;24.40;98.70
35277;DHT22;21401;50.878;8.050;2022-08-01T14:27:44;24.80;98.80
35277;DHT22;21401;50.878;8.050;2022-08-01T14:30:12;25.00;98.10
35277;DHT22;21401;50.878;8.050;2022-08-01T14:32:41;25.20;96.80
35277;DHT22;21401;50.878;8.050;2022-08-01T14:35:07;25.50;96.60
35277;DHT22;21401;50.878;8.050;2022-08-01T14:37:35;25.50;96.80
35277;DHT22;21401;50.878;8.050;2022-08-01T14:40:01;25.40;96.80
35277;DHT22;21401;50.878;8.050;2022-08-01T14:42:32;25.40;96.80
35277;DHT22;21401;50.878;8.050;2022-08-01T14:45:00;25.20;97.40
35277;DHT22;21401;50.878;8.050;2022-08-01T14:47:25;25.00;98.40
35277;DHT22;21401;50.878;8.050;2022-08-01T14:49:51;25.20;98.20
35277;DHT22;21401;50.878;8.050;2022-08-01T14:52:21;25.30;98.10
35277;DHT22;21401;50.878;8.050;2022-08-01T14:54:47;25.30;98.30
35277;DHT22;21401;50.878;8.050;2022-08-01T14:57:13;25.10;98.40
35277;DHT22;21401;50.878;8.050;2022-08-01T14:59:38;25.00;98.80
35277;DHT22;21401;50.878;8.050;2022-08-01T15:02:06;24.90;98.50
35277;DHT22;21401;50.878;8.050;2022-08-01T15:04:37;24.50;99.00
35277;DHT22;21401;50.878;8.050;2022-08-01T15:07:02;25.00;99.30
35277;DHT22;21401;50.878;8.050;2022-08-01T15:09:28;25.20;98.30
35277;DHT22;21401;50.878;8.050;2022-08-01T15:11:53;25.50;98.00
35277;DHT22;21401;50.878;8.050;2022-08-01T15:14:19;25.60;97.50
35277;DHT22;21401;50.878;8.050;2022-08-01T15:17:03;24.80;97.50
35277;DHT22;21401;50.878;8.050;2022-08-01T15:19:29;25.20;98.00
35277;DHT22;21401;50.878;8.050;2022-08-01T15:21:57;25.00;97.90
35277;DHT22;21401;50.878;8.050;2022-08-01T15:24:22;24.80;98.40
35277;DHT22;21401;50.878;8.050;2022-08-01T15:26:50;25.00;98.90
35277;DHT22;21401;50.878;8.050;2022-08-01T15:29:15;25.00;98.10
35277;DHT22;21401;50.878;8.050;2022-08-01T15:31:41;25.20;98.00
35277;DHT22;21401;50.878;8.050;2022-08-01T15:34:09;25.40;97.20
35277;DHT22;21401;50.878;8.050;2022-08-01T15:36:34;25.40;96.90
35277;DHT22;21401;50.878;8.050;2022-08-01T15:39:00;25.40;96.80
35277;DHT22;21401;50.878;8.050;2022-08-01T15:41:26;25.20;96.50
35277;DHT22;21401;50.878;8.050;2022-08-01T15:43:51;25.00;97.00
35277;DHT22;21401;50.878;8.050;2022-08-01T15:46:22;25.10;97.20
35277;DHT22;21401;50.878;8.050;2022-08-01T15:48:48;25.10;97.10
35277;DHT22;21401;50.878;8.050;2022-08-01T15:51:16;25.20;96.70
35277;DHT22;21401;50.878;8.050;2022-08-01T15:53:42;25.30;96.50
35277;DHT22;21401;50.878;8.050;2022-08-01T15:56:08;25.20;96.50
35277;DHT22;21401;50.878;8.050;2022-08-01T15:58:33;25.20;96.50
35277;DHT22;21401;50.878;8.050;2022-08-01T16:00:59;25.20;96.80
35277;DHT22;21401;50.878;8.050;2022-08-01T16:03:27;25.20;96.70
35277;DHT22;21401;50.878;8.050;2022-08-01T16:05:53;25.00;97.70
35277;DHT22;21401;50.878;8.050;2022-08-01T16:08:21;25.00;98.40
35277;DHT22;21401;50.878;8.050;2022-08-01T16:10:51;24.80;99.50
35277;DHT22;21401;50.878;8.050;2022-08-01T16:13:17;24.60;99.90
35277;DHT22;21401;50.878;8.050;2022-08-01T16:15:43;24.40;99.90
35277;DHT22;21401;50.878;8.050;2022-08-01T16:18:10;24.40;99.90
35277;DHT22;21401;50.878;8.050;2022-08-01T16:20:38;24.20;99.90
35277;DHT22;21401;50.878;8.050;2022-08-01T16:23:04;24.00;99.90
35277;DHT22;21401;50.878;8.050;2022-08-01T16:25:32;24.30;99.90
35277;DHT22;21401;50.878;8.050;2022-08-01T16:27:57;24.50;99.90
35277;DHT22;21401;50.878;8.050;2022-08-01T16:30:23;24.30;99.90
35277;DHT22;21401;50.878;8.050;2022-08-01T16:32:49;24.40;99.90
35277;DHT22;21401;50.878;8.050;2022-08-01T16:35:14;24.70;99.90
35277;DHT22;21401;50.878;8.050;2022-08-01T16:37:40;24.80;99.90